Time;durP1;ratioP1;P1;durP2;ratioP2;P2;SDS_P1;SDS_P2;PMS_P1;PMS_P2;Temp;Humidity;BMP_temperature;BMP_pressure;BME280_temperature;BME280_humidity;BME280_pressure;Samples;Min_cycle;Max_cycle;Signal;HPM_P1;HPM_P2
2022/03/27 00:01:30;;;;;;;;;23.33;19.33;;;;;13.67;38.89;99995.47;5072309;28;46253;-64
2022/03/27 00:03:56;;;;;;;;;20.00;19.33;;;;;13.66;39.23;99992.88;5071864;27;45428;-65
2022/03/27 00:06:21;;;;;;;;;23.33;23.00;;;;;13.63;39.05;99994.72;5094015;27;45381;-64
2022/03/27 00:08:47;;;;;;;;;18.00;16.67;;;;;13.61;38.55;99995.72;5074736;28;45491;-67
2022/03/27 00:11:24;;;;;;;;;21.67;18.33;;;;;13.58;39.04;100006.41;5076263;28;45411;-66
2022/03/27 00:13:51;;;;;;;;;24.67;21.67;;;;;13.55;39.08;100006.56;5072276;27;45486;-66
2022/03/27 00:16:16;;;;;;;;;21.00;17.67;;;;;13.52;39.05;100007.53;5093294;27;45503;-66
2022/03/27 00:18:43;;;;;;;;;18.33;18.33;;;;;13.48;38.90;100003.25;5073182;27;45517;-66
2022/03/27 00:21:10;;;;;;;;;19.67;18.00;;;;;13.46;39.29;100012.19;5076967;28;46737;-67
2022/03/27 00:23:36;;;;;;;;;23.67;19.67;;;;;13.43;39.36;100009.66;5072086;27;45389;-66
2022/03/27 00:26:02;;;;;;;;;13.00;13.00;;;;;13.41;39.08;100015.00;5075799;28;45384;-65
2022/03/27 00:28:32;;;;;;;;;22.00;18.33;;;;;13.40;39.25;100009.78;5074659;27;45479;-65
2022/03/27 00:31:04;;;;;;;;;25.67;21.33;;;;;13.35;39.84;100017.91;5075800;28;45520;-66
2022/03/27 00:33:29;;;;;;;;;18.67;17.67;;;;;13.32;39.78;100018.00;5077185;27;45525;-66
2022/03/27 00:35:55;;;;;;;;;21.33;18.00;;;;;13.27;39.64;100018.16;5076559;28;45386;-65
2022/03/27 00:38:21;;;;;;;;;17.00;15.00;;;;;13.22;40.17;100025.44;5073928;28;45383;-66
2022/03/27 00:40:49;;;;;;;;;6.33;6.00;;;;;13.11;40.18;100022.25;5077620;28;45355;-66
2022/03/27 00:43:15;;;;;;;;;26.00;23.33;;;;;12.99;40.86;100027.13;5077924;27;45311;-66
2022/03/27 00:45:40;;;;;;;;;20.00;19.00;;;;;12.85;41.40;100027.63;5065004;28;45455;-66
2022/03/27 00:48:06;;;;;;;;;26.33;22.33;;;;;12.72;41.83;100037.78;5078114;28;45424;-66
2022/03/27 00:50:32;;;;;;;;;25.67;23.00;;;;;12.62;41.63;100038.13;5077816;27;45488;-66
2022/03/27 00:52:57;;;;;;;;;18.33;16.00;;;;;12.54;41.65;100033.09;5077129;28;45364;-66
2022/03/27 00:55:23;;;;;;;;;20.00;19.67;;;;;12.51;40.71;100038.50;5071086;28;45348;-66
2022/03/27 00:57:49;;;;;;;;;24.33;20.33;;;;;12.47;41.48;100032.44;5077698;28;45561;-66
2022/03/27 01:00:47;;;;;;;;;18.67;17.33;;;;;12.43;41.68;100035.22;5065124;28;46679;-66
2022/03/27 01:03:20;;;;;;;;;17.33;17.33;;;;;12.41;41.48;100037.91;5075248;28;45412;-65
2022/03/27 01:05:48;;;;;;;;;19.33;17.67;;;;;12.40;41.78;100040.63;5065618;28;45411;-66
2022/03/27 01:08:14;;;;;;;;;26.33;23.33;;;;;12.40;41.57;100040.63;5073066;28;45611;-66
2022/03/27 01:10:41;;;;;;;;;19.00;18.00;;;;;12.40;41.53;100049.41;5069204;28;45412;-66
2022/03/27 01:13:15;;;;;;;;;21.33;19.33;;;;;12.42;41.69;100044.06;5073874;28;45424;-65
2022/03/27 01:15:45;;;;;;;;;20.00;18.33;;;;;12.43;41.85;100045.78;5069321;28;45415;-66
2022/03/27 01:18:14;;;;;;;;;18.67;16.67;;;;;12.42;41.82;100042.28;5061741;28;45518;-66
2022/03/27 01:20:42;;;;;;;;;21.67;17.33;;;;;12.43;42.00;100044.00;5070434;28;47193;-65
2022/03/27 01:23:10;;;;;;;;;20.67;19.33;;;;;12.40;42.16;100036.19;5077748;27;45233;-66
2022/03/27 01:25:37;;;;;;;;;19.00;17.33;;;;;12.36;41.61;100039.88;5073890;28;45380;-66
2022/03/27 01:28:03;;;;;;;;;24.67;23.33;;;;;12.34;43.62;100043.47;5075784;27;45516;-66
2022/03/27 01:30:28;;;;;;;;;19.00;16.33;;;;;12.28;42.86;100054.22;5072001;28;46770;-66
2022/03/27 01:32:55;;;;;;;;;19.67;17.67;;;;;12.24;43.09;100049.03;5075450;27;45292;-66
2022/03/27 01:35:21;;;;;;;;;20.00;16.33;;;;;12.23;42.44;100055.22;5072056;28;45578;-65
2022/03/27 01:37:47;;;;;;;;;18.00;15.67;;;;;12.22;42.53;100050.03;5077153;27;45733;-65
2022/03/27 01:40:13;;;;;;;;;24.00;20.33;;;;;12.20;42.35;100055.34;5063276;28;47023;-66
2022/03/27 01:42:39;;;;;;;;;19.00;18.00;;;;;12.19;42.44;100050.13;5075991;28;45479;-66
2022/03/27 01:45:05;;;;;;;;;19.33;19.00;;;;;12.17;42.56;100055.44;5076728;27;45521;-66
2022/03/27 01:47:32;;;;;;;;;18.33;16.67;;;;;12.15;42.80;100053.75;5077107;28;45406;-66
2022/03/27 01:49:58;;;;;;;;;21.00;21.00;;;;;12.12;43.31;100051.22;5074635;28;45472;-66
2022/03/27 01:52:23;;;;;;;;;18.67;16.67;;;;;12.10;43.21;100050.38;5077172;27;45405;-66
2022/03/27 01:54:49;;;;;;;;;16.67;14.67;;;;;12.08;43.04;100050.44;5070265;28;45283;-66
2022/03/27 01:57:15;;;;;;;;;23.67;18.00;;;;;12.06;43.50;100054.06;5075340;28;45721;-66
2022/03/27 01:59:41;;;;;;;;;21.50;19.50;;;;;12.03;43.28;100052.38;5063875;27;45421;-66
2022/03/27 02:02:06;;;;;;;;;20.67;19.67;;;;;12.00;43.30;100049.81;5076659;27;45274;-66
2022/03/27 02:04:32;;;;;;;;;21.67;21.00;;;;;11.96;43.19;100047.31;5089161;27;45369;-66
2022/03/27 02:06:57;;;;;;;;;21.67;21.67;;;;;11.94;44.10;100051.78;5092652;27;45589;-66
2022/03/27 02:09:22;;;;;;;;;24.00;21.00;;;;;11.88;44.78;100050.22;5067609;27;46258;-66
2022/03/27 02:11:48;;;;;;;;;23.00;21.33;;;;;11.79;43.88;100053.13;5076875;27;45201;-66
2022/03/27 02:14:13;;;;;;;;;26.33;24.00;;;;;11.68;44.01;100049.91;5079952;27;45363;-66
2022/03/27 02:16:41;;;;;;;;;21.67;21.33;;;;;11.60;44.63;100047.47;5076203;27;45195;-66
2022/03/27 02:19:09;;;;;;;;;25.33;24.00;;;;;11.55;44.09;100049.41;5067504;28;45474;-66
2022/03/27 02:21:36;;;;;;;;;30.00;23.00;;;;;11.52;44.48;100055.63;5076732;28;45356;-66
2022/03/27 02:24:05;;;;;;;;;23.67;19.67;;;;;11.52;45.12;100057.41;5068230;28;45337;-66
2022/03/27 02:26:31;;;;;;;;;25.33;22.33;;;;;11.48;45.10;100054.00;5076386;27;45379;-65
2022/03/27 02:28:57;;;;;;;;;27.67;22.00;;;;;11.46;45.17;100057.56;5076084;27;46421;-66
2022/03/27 02:31:23;;;;;;;;;20.33;19.00;;;;;11.43;46.36;100058.53;5074980;28;45423;-66
2022/03/27 02:33:48;;;;;;;;;22.67;20.00;;;;;11.39;47.18;100061.31;5073884;28;45391;-66
2022/03/27 02:36:15;;;;;;;;;21.00;18.67;;;;;11.37;45.68;100065.78;5076378;27;45411;-66
2022/03/27 02:38:41;;;;;;;;;20.33;18.67;;;;;11.35;45.10;100065.81;5076279;28;45794;-66
2022/03/27 02:41:07;;;;;;;;;25.33;22.33;;;;;11.33;46.90;100072.03;5075019;28;45387;-66
2022/03/27 02:43:33;;;;;;;;;21.33;19.67;;;;;11.28;45.65;100071.28;5105783;27;45477;-65
2022/03/27 02:46:00;;;;;;;;;24.00;19.33;;;;;11.25;45.31;100066.97;5076023;28;45558;-66
2022/03/27 02:48:26;;;;;;;;;20.00;19.00;;;;;11.23;45.11;100070.56;5090265;27;47241;-66
2022/03/27 02:50:52;;;;;;;;;22.67;22.00;;;;;11.22;45.36;100072.34;5076051;27;45649;-65
2022/03/27 02:53:18;;;;;;;;;26.33;24.33;;;;;11.19;45.48;100068.00;5076200;27;45559;-65
2022/03/27 02:55:43;;;;;;;;;23.33;18.67;;;;;11.18;45.60;100068.91;5076273;27;45454;-66
2022/03/27 02:58:09;;;;;;;;;25.00;22.67;;;;;11.17;45.69;100071.59;5074413;28;46233;-65
2022/03/27 03:00:35;;;;;;;;;27.00;23.00;;;;;11.16;45.81;100077.78;5069992;28;45390;-66
2022/03/27 03:03:00;;;;;;;;;22.00;19.67;;;;;11.15;45.85;100076.91;5075507;27;45502;-66
2022/03/27 03:05:26;;;;;;;;;21.00;19.00;;;;;11.15;45.91;100078.69;5072780;27;45427;-66
2022/03/27 03:07:52;;;;;;;;;24.00;22.00;;;;;11.13;46.26;100077.84;5069153;28;46329;-66
2022/03/27 03:10:18;;;;;;;;;25.33;23.00;;;;;11.11;46.58;100083.19;5073892;28;45372;-66
2022/03/27 03:12:45;;;;;;;;;27.00;24.67;;;;;11.07;46.74;100081.53;5076310;27;45565;-66
2022/03/27 03:15:13;;;;;;;;;33.33;30.67;;;;;11.03;46.89;100079.03;5066026;27;45391;-66
2022/03/27 03:17:38;;;;;;;;;34.33;28.00;;;;;10.99;46.98;100083.50;5074761;27;45438;-66
2022/03/27 03:20:04;;;;;;;;;30.67;29.00;;;;;10.98;46.87;100080.91;5075565;27;45352;-66
2022/03/27 03:22:31;;;;;;;;;26.33;23.67;;;;;10.97;47.00;100071.25;5074168;28;45372;-66
2022/03/27 03:24:57;;;;;;;;;24.00;19.33;;;;;10.92;46.72;100076.66;5069012;28;45522;-66
2022/03/27 03:27:22;;;;;;;;;29.00;23.33;;;;;10.90;47.12;100077.59;5075464;27;47237;-66
2022/03/27 03:29:48;;;;;;;;;26.00;24.33;;;;;10.89;47.34;100084.69;5073798;28;45392;-66
2022/03/27 03:32:13;;;;;;;;;37.67;32.00;;;;;10.88;47.21;100082.94;5075302;28;45490;-65
2022/03/27 03:34:39;;;;;;;;;31.67;28.33;;;;;10.87;47.19;100089.13;5075470;28;45282;-65
2022/03/27 03:37:04;;;;;;;;;31.33;30.00;;;;;10.87;47.27;100080.34;5073782;28;47123;-65
2022/03/27 03:39:29;;;;;;;;;35.33;32.00;;;;;10.86;47.52;100084.75;5074530;27;45422;-65
2022/03/27 03:41:55;;;;;;;;;33.00;31.33;;;;;10.83;47.57;100080.41;5075720;28;45352;-66
2022/03/27 03:44:23;;;;;;;;;28.00;28.00;;;;;10.81;47.53;100084.84;5074074;27;45375;-66
2022/03/27 03:46:48;;;;;;;;;29.67;27.67;;;;;10.79;47.29;100081.38;5073222;28;45481;-65
2022/03/27 03:49:14;;;;;;;;;30.00;25.67;;;;;10.79;47.30;100088.44;5081944;27;45352;-66
2022/03/27 03:51:40;;;;;;;;;31.00;26.00;;;;;10.79;47.22;100084.03;5072447;28;45434;-65
2022/03/27 03:54:09;;;;;;;;;29.00;28.00;;;;;10.77;47.50;100091.09;5074032;27;45463;-65
2022/03/27 03:56:36;;;;;;;;;21.67;20.33;;;;;10.76;46.98;100086.72;5087146;27;45380;-65
2022/03/27 03:59:01;;;;;;;;;32.00;26.00;;;;;10.75;46.58;100097.31;5070188;27;45539;-66
2022/03/27 04:01:27;;;;;;;;;24.00;21.67;;;;;10.72;46.32;100095.66;5071241;28;45550;-65
2022/03/27 04:03:52;;;;;;;;;25.33;22.00;;;;;10.69;46.27;100097.50;5070629;27;45350;-66
2022/03/27 04:06:18;;;;;;;;;30.67;27.00;;;;;10.65;46.44;100094.06;5072841;27;45436;-66
2022/03/27 04:08:43;;;;;;;;;24.33;20.67;;;;;10.62;46.34;100096.78;5070765;28;45427;-65
2022/03/27 04:11:16;;;;;;;;;25.33;22.67;;;;;10.59;46.59;100101.25;5071429;28;45420;-66
2022/03/27 04:13:43;;;;;;;;;30.00;26.00;;;;;10.56;46.39;100102.19;5069302;27;45695;-66
2022/03/27 04:16:10;;;;;;;;;25.00;22.00;;;;;10.52;46.39;100105.81;5071993;28;46175;-66
2022/03/27 04:18:36;;;;;;;;;22.33;21.33;;;;;10.49;45.58;100097.97;5067124;27;45511;-66
2022/03/27 04:21:01;;;;;;;;;24.00;22.67;;;;;10.46;45.49;100098.91;5074760;28;45487;-66
2022/03/27 04:23:27;;;;;;;;;27.67;22.00;;;;;10.45;45.65;100099.81;5070324;27;45340;-65
2022/03/27 04:25:53;;;;;;;;;23.33;22.00;;;;;10.45;45.53;100099.81;5104956;27;46429;-65
2022/03/27 04:28:18;;;;;;;;;28.33;24.67;;;;;10.45;45.42;100106.84;5070632;28;45298;-65
2022/03/27 04:30:44;;;;;;;;;22.33;20.33;;;;;10.45;45.18;100104.22;5071857;28;45360;-65
2022/03/27 04:33:10;;;;;;;;;26.67;26.33;;;;;10.43;45.41;100104.25;5074685;27;45400;-65
2022/03/27 04:35:36;;;;;;;;;33.67;28.33;;;;;10.42;46.05;100097.25;5074666;28;45457;-65
2022/03/27 04:38:01;;;;;;;;;34.33;32.00;;;;;10.41;47.12;100103.41;5074565;27;45489;-65
2022/03/27 04:40:27;;;;;;;;;29.00;28.00;;;;;10.40;45.37;100103.44;5074630;28;45414;-65
2022/03/27 04:42:52;;;;;;;;;30.67;26.33;;;;;10.36;45.16;100110.59;5073208;28;45542;-66
2022/03/27 04:45:18;;;;;;;;;30.33;28.67;;;;;10.31;45.55;100107.19;5072265;27;46307;-65
2022/03/27 04:47:44;;;;;;;;;30.67;29.00;;;;;10.29;45.81;100113.38;5074278;28;45463;-65
2022/03/27 04:50:09;;;;;;;;;29.33;26.67;;;;;10.27;45.71;100112.56;5066297;27;45988;-66
2022/03/27 04:52:36;;;;;;;;;28.67;27.00;;;;;10.26;45.74;100114.31;5067045;28;45286;-65
2022/03/27 04:55:01;;;;;;;;;31.33;28.33;;;;;10.26;46.26;100118.72;5076259;28;46346;-65
2022/03/27 04:57:35;;;;;;;;;28.67;26.67;;;;;10.22;45.37;100122.34;5078052;27;45340;-66
2022/03/27 05:00:00;;;;;;;;;30.50;28.00;;;;;10.21;45.80;100116.22;5064886;27;45271;-65
2022/03/27 05:02:26;;;;;;;;;36.00;28.33;;;;;10.20;46.55;100124.16;5077635;27;45528;-66
2022/03/27 05:04:52;;;;;;;;;30.67;27.33;;;;;10.20;46.60;100124.16;5069997;27;45326;-66
2022/03/27 05:07:17;;;;;;;;;31.67;30.67;;;;;10.18;47.26;100120.66;5076539;28;45781;-66
2022/03/27 05:09:42;;;;;;;;;42.33;32.00;;;;;10.13;47.69;100126.88;5067188;27;45436;-65
2022/03/27 05:12:09;;;;;;;;;28.00;28.00;;;;;10.13;47.67;100134.78;5076565;28;45416;-66
2022/03/27 05:14:34;;;;;;;;;43.33;34.33;;;;;10.10;48.07;100129.56;5076756;27;46373;-66
2022/03/27 05:17:03;;;;;;;;;37.67;32.33;;;;;10.06;48.31;100130.53;5076941;27;45454;-65
2022/03/27 05:19:29;;;;;;;;;32.67;27.67;;;;;10.05;48.38;100130.59;5074710;27;45522;-66
2022/03/27 05:21:55;;;;;;;;;38.33;33.67;;;;;10.03;48.55;100127.13;5077530;28;45412;-65
2022/03/27 05:24:20;;;;;;;;;34.00;32.00;;;;;10.01;49.04;100132.44;5058666;28;45390;-65
2022/03/27 05:26:46;;;;;;;;;35.00;30.33;;;;;9.98;49.44;100129.84;5076388;28;45288;-66
2022/03/27 05:29:13;;;;;;;;;40.00;34.33;;;;;9.95;49.50;100137.81;5072657;27;46024;-66
2022/03/27 05:31:40;;;;;;;;;31.67;28.00;;;;;9.92;49.46;100134.38;5075520;28;45531;-65
2022/03/27 05:34:06;;;;;;;;;31.00;29.67;;;;;9.86;49.71;100145.06;5069707;28;45455;-61
2022/03/27 05:36:32;;;;;;;;;29.00;27.67;;;;;9.79;50.00;100144.31;5092561;27;45494;-64
2022/03/27 05:39:00;;;;;;;;;34.00;29.00;;;;;9.75;50.36;100148.75;5070889;28;45447;-64
2022/03/27 05:41:26;;;;;;;;;36.00;33.00;;;;;9.73;50.19;100158.44;5068973;28;45440;-63
2022/03/27 05:43:52;;;;;;;;;36.00;33.33;;;;;9.72;50.43;100156.72;5074935;27;45748;-65
2022/03/27 05:46:18;;;;;;;;;28.33;27.67;;;;;9.72;50.46;100163.75;5075994;27;45379;-65
2022/03/27 05:48:44;;;;;;;;;37.33;31.00;;;;;9.69;50.48;100167.34;5072087;27;45397;-64
2022/03/27 05:51:09;;;;;;;;;31.00;27.33;;;;;9.70;50.63;100166.44;5068161;28;45554;-64
2022/03/27 05:53:34;;;;;;;;;36.00;32.33;;;;;9.71;50.54;100165.53;5075697;27;46555;-64
2022/03/27 05:56:00;;;;;;;;;34.33;29.00;;;;;9.71;50.39;100168.19;5109170;27;45453;-65
2022/03/27 05:58:27;;;;;;;;;25.67;24.00;;;;;9.74;50.62;100177.75;5074695;28;45462;-64
2022/03/27 06:00:53;;;;;;;;;39.00;32.67;;;;;9.76;49.85;100186.50;5070708;27;45502;-65
2022/03/27 06:03:18;;;;;;;;;29.67;28.67;;;;;9.78;50.16;100184.69;5067689;27;46571;-65
2022/03/27 06:05:46;;;;;;;;;26.00;26.00;;;;;9.82;49.87;100191.66;5072774;28;45501;-65
2022/03/27 06:08:12;;;;;;;;;29.33;25.00;;;;;9.83;49.50;100196.03;5063829;28;45544;-65
2022/03/27 06:10:42;;;;;;;;;35.33;29.00;;;;;9.85;49.18;100199.50;5076936;28;45481;-65
2022/03/27 06:13:10;;;;;;;;;26.67;23.67;;;;;9.89;48.10;100202.91;5074675;28;45997;-65
2022/03/27 06:15:36;;;;;;;;;32.00;27.33;;;;;9.89;48.28;100201.16;5073821;27;45509;-65
2022/03/27 06:18:03;;;;;;;;;31.33;28.00;;;;;9.93;48.54;100208.09;5057496;28;45352;-65
2022/03/27 06:20:32;;;;;;;;;32.33;26.67;;;;;10.00;48.64;100208.84;5074657;28;45527;-65
2022/03/27 06:22:58;;;;;;;;;32.00;30.67;;;;;10.05;48.75;100201.72;5075356;28;46369;-65
2022/03/27 06:25:26;;;;;;;;;29.67;29.67;;;;;10.13;48.44;100205.06;5075457;28;45445;-65
2022/03/27 06:27:52;;;;;;;;;26.33;24.33;;;;;10.19;47.50;100204.97;5076785;27;45471;-65
2022/03/27 06:30:21;;;;;;;;;30.33;26.00;;;;;10.26;47.40;100210.97;5070747;28;45334;-65
2022/03/27 06:32:48;;;;;;;;;32.00;31.33;;;;;10.31;47.56;100212.63;5075524;27;45383;-65
2022/03/27 06:35:15;;;;;;;;;32.00;28.33;;;;;10.38;47.32;100203.69;5075333;28;45467;-66
2022/03/27 06:37:42;;;;;;;;;28.00;25.00;;;;;10.46;47.17;100209.63;5076650;27;45418;-65
2022/03/27 06:40:09;;;;;;;;;31.67;31.00;;;;;10.54;47.40;100214.75;5074723;28;45419;-65
2022/03/27 06:42:36;;;;;;;;;32.00;29.00;;;;;10.57;47.57;100219.06;5075814;27;46515;-66
2022/03/27 06:45:03;;;;;;;;;35.00;31.00;;;;;10.63;47.68;100217.16;5085026;27;45459;-65
2022/03/27 06:47:29;;;;;;;;;33.00;29.00;;;;;10.69;47.07;100227.59;5070270;28;45357;-65
2022/03/27 06:49:56;;;;;;;;;34.00;28.67;;;;;10.75;46.68;100230.06;5069389;28;45547;-65
2022/03/27 06:52:23;;;;;;;;;34.00;27.33;;;;;10.77;46.54;100233.53;5075839;28;45645;-66
2022/03/27 06:54:49;;;;;;;;;30.00;24.33;;;;;10.81;46.65;100234.34;5073658;27;45540;-65
2022/03/27 06:57:14;;;;;;;;;32.33;28.00;;;;;10.83;46.62;100228.13;5075164;27;45565;-66
2022/03/27 07:05:09;;;;;;;;;29.33;24.00;;;;;10.91;47.15;100232.34;5075233;28;45562;-65
2022/03/27 07:07:35;;;;;;;;;28.67;27.33;;;;;10.94;47.30;100235.78;5071423;28;45488;-65
2022/03/27 07:10:01;;;;;;;;;30.33;29.00;;;;;10.98;47.03;100245.38;5089626;27;45365;-65
2022/03/27 07:12:26;;;;;;;;;29.00;26.00;;;;;11.01;46.88;100242.66;5074649;27;45866;-65
2022/03/27 07:14:52;;;;;;;;;30.67;28.00;;;;;11.05;46.37;100243.47;5046915;28;45577;-65
2022/03/27 07:17:18;;;;;;;;;34.00;29.67;;;;;11.06;46.42;100240.75;5067198;27;45421;-65
2022/03/27 07:19:47;;;;;;;;;30.67;29.00;;;;;11.09;46.40;100248.59;5062972;28;45550;-65
2022/03/27 07:22:15;;;;;;;;;27.67;23.00;;;;;11.13;46.12;100239.72;5074908;27;45514;-65
2022/03/27 07:24:41;;;;;;;;;26.67;24.33;;;;;11.17;45.87;100248.44;5066643;28;45431;-66
2022/03/27 07:27:08;;;;;;;;;33.33;30.33;;;;;11.21;45.92;100239.53;5068921;28;45400;-66
2022/03/27 07:29:37;;;;;;;;;31.33;30.00;;;;;11.26;45.70;100245.56;5068115;28;45487;-66
2022/03/27 07:32:03;;;;;;;;;32.33;27.00;;;;;11.30;46.07;100239.31;5068860;28;45386;-66
2022/03/27 07:34:28;;;;;;;;;36.33;28.67;;;;;11.36;45.81;100233.00;5073133;28;45321;-66
2022/03/27 07:36:54;;;;;;;;;35.33;30.00;;;;;11.42;45.50;100235.47;5089176;27;45506;-66
2022/03/27 07:39:21;;;;;;;;;36.33;32.00;;;;;11.47;45.46;100237.09;5069212;28;45499;-66
2022/03/27 07:41:46;;;;;;;;;34.00;28.67;;;;;11.53;44.83;100234.31;5083707;27;45461;-66
2022/03/27 07:44:12;;;;;;;;;30.67;27.00;;;;;11.58;44.87;100223.59;5073859;27;45407;-66
2022/03/27 07:46:37;;;;;;;;;27.33;25.00;;;;;11.65;44.40;100232.25;5072556;28;45470;-66
2022/03/27 07:49:06;;;;;;;;;30.33;30.33;;;;;11.72;44.46;100233.81;5073631;28;45509;-66
2022/03/27 07:51:34;;;;;;;;;30.67;29.00;;;;;11.78;44.00;100226.63;5067748;28;45382;-66
2022/03/27 07:54:04;;;;;;;;;27.67;25.33;;;;;11.85;43.65;100233.47;5073912;28;45367;-66
2022/03/27 07:56:33;;;;;;;;;26.67;25.00;;;;;11.90;43.61;100233.31;5071231;28;45407;-66
2022/03/27 07:58:59;;;;;;;;;36.00;30.00;;;;;11.96;43.70;100232.28;5079669;27;45334;-66
2022/03/27 08:01:26;;;;;;;;;31.00;27.00;;;;;12.02;43.97;100232.13;5070689;28;46586;-66
2022/03/27 08:03:56;;;;;;;;;30.00;26.67;;;;;12.08;43.57;100232.81;5073883;27;45500;-66
2022/03/27 08:06:21;;;;;;;;;29.67;27.67;;;;;12.14;43.86;100230.00;5074602;28;45462;-66
2022/03/27 08:08:48;;;;;;;;;36.67;31.67;;;;;12.21;44.07;100226.28;5068783;27;45356;-66
2022/03/27 08:11:14;;;;;;;;;39.33;32.67;;;;;12.27;43.94;100227.00;5069717;28;45470;-66
2022/03/27 08:13:39;;;;;;;;;38.00;29.33;;;;;12.33;43.92;100227.69;5068791;28;45427;-66
2022/03/27 08:16:05;;;;;;;;;37.33;31.00;;;;;12.40;43.96;100228.41;5071147;28;45227;-66
2022/03/27 08:18:33;;;;;;;;;30.00;27.67;;;;;12.46;43.76;100223.75;5071728;28;45637;-66
2022/03/27 08:20:59;;;;;;;;;33.33;29.67;;;;;12.52;43.92;100226.25;5070048;28;45485;-66
2022/03/27 08:23:24;;;;;;;;;33.00;31.00;;;;;12.59;43.92;100229.53;5071034;27;45375;-66
2022/03/27 08:28:33;;;;;;;;;32.00;31.00;;;;;12.74;43.32;100222.91;5075376;28;45390;-66
2022/03/27 08:31:01;;;;;;;;;35.33;30.33;;;;;12.78;43.01;100225.41;5076925;28;47219;-67
2022/03/27 08:33:27;;;;;;;;;32.67;31.00;;;;;12.86;42.33;100222.53;5073873;27;45322;-66
2022/03/27 08:35:54;;;;;;;;;29.33;28.00;;;;;12.92;42.48;100225.84;5077581;28;45495;-66
2022/03/27 08:38:20;;;;;;;;;29.33;28.00;;;;;12.99;42.52;100226.53;5074491;28;45453;-66
2022/03/27 08:40:47;;;;;;;;;34.33;31.67;;;;;13.07;42.23;100232.41;5077733;27;47345;-66
2022/03/27 08:43:15;;;;;;;;;27.00;25.67;;;;;13.16;42.33;100237.47;5074265;28;45375;-67
2022/03/27 08:45:43;;;;;;;;;26.67;22.00;;;;;13.24;42.10;100226.59;5076900;27;45270;-66
2022/03/27 08:48:11;;;;;;;;;28.00;26.00;;;;;13.31;41.64;100228.16;5076422;28;45351;-66
2022/03/27 08:50:59;;;;;;;;;25.50;25.50;;;;;13.39;41.65;100228.78;5089811;27;46312;-67
2022/03/27 08:53:52;;;;;;;;;26.00;24.67;;;;;13.46;41.54;100232.91;5074942;28;45415;-66
2022/03/27 08:56:20;;;;;;;;;37.67;33.33;;;;;13.54;41.56;100232.66;5075161;28;45432;-67
2022/03/27 08:58:45;;;;;;;;;32.67;28.33;;;;;13.59;41.61;100228.94;5075769;27;45569;-67
2022/03/27 09:01:11;;;;;;;;;30.00;27.00;;;;;13.67;41.34;100231.31;5076289;28;46106;-67
2022/03/27 09:03:37;;;;;;;;;26.67;26.67;;;;;13.73;41.19;100227.59;5075486;28;45348;-67
2022/03/27 09:06:08;;;;;;;;;30.33;29.33;;;;;13.80;40.98;100229.09;5065252;28;45461;-66
2022/03/27 09:08:34;;;;;;;;;6.00;4.33;;;;;13.88;40.62;100232.34;5076785;28;45503;-67
2022/03/27 09:11:01;;;;;;;;;31.67;30.00;;;;;13.95;40.47;100229.41;5075385;28;47235;-67
2022/03/27 09:13:27;;;;;;;;;32.67;28.67;;;;;14.03;40.32;100223.84;5074824;27;45478;-67
2022/03/27 09:16:01;;;;;;;;;16.67;13.33;;;;;14.10;39.93;100227.13;5073830;28;45644;-68
2022/03/27 09:18:39;;;;;;;;;31.33;28.67;;;;;14.18;39.86;100225.06;5070105;27;45559;-67
2022/03/27 09:21:05;;;;;;;;;27.67;26.67;;;;;14.26;39.41;100221.19;5073033;28;45387;-67
2022/03/27 09:23:31;;;;;;;;;23.67;22.00;;;;;14.34;39.15;100218.25;5073716;27;45376;-67
2022/03/27 09:26:03;;;;;;;;;26.67;26.33;;;;;14.45;38.70;100232.00;5075953;28;45511;-67
2022/03/27 09:28:28;;;;;;;;;18.67;18.00;;;;;14.54;37.61;100210.44;5073325;27;45489;-67
2022/03/27 09:30:57;;;;;;;;;21.67;20.67;;;;;14.65;37.68;100216.19;5074378;28;46054;-67
2022/03/27 09:33:32;;;;;;;;;22.67;21.67;;;;;14.76;36.58;100218.41;5075761;27;45357;-66
2022/03/27 09:36:09;;;;;;;;;20.33;18.33;;;;;14.87;35.55;100218.00;5074756;27;45435;-66
2022/03/27 09:38:37;;;;;;;;;17.67;17.67;;;;;14.97;34.34;100214.03;5073340;28;45500;-66
2022/03/27 09:41:02;;;;;;;;;22.00;19.33;;;;;15.08;34.78;100221.59;5076518;28;45354;-66
2022/03/27 09:43:28;;;;;;;;;21.67;19.33;;;;;15.18;34.07;100222.91;5073322;27;45436;-66
2022/03/27 09:46:03;;;;;;;;;22.00;19.00;;;;;15.25;33.53;100219.94;5073191;28;45494;-66
2022/03/27 09:48:32;;;;;;;;;22.00;20.33;;;;;15.31;33.33;100217.03;5073516;27;45342;-66
2022/03/27 09:50:59;;;;;;;;;23.67;22.00;;;;;15.38;33.67;100219.44;5091394;27;46221;-66
2022/03/27 09:53:31;;;;;;;;;24.00;20.00;;;;;15.44;33.36;100216.50;5073673;28;45451;-67
2022/03/27 09:55:56;;;;;;;;;22.33;20.67;;;;;15.50;32.80;100222.44;5076098;28;45324;-67
2022/03/27 09:58:46;;;;;;;;;21.67;18.67;;;;;15.57;32.64;100215.09;5075308;28;45388;-67
2022/03/27 10:01:17;;;;;;;;;16.67;16.67;;;;;15.63;32.20;100222.78;5067095;28;48064;-67
2022/03/27 10:04:07;;;;;;;;;19.33;19.33;;;;;15.69;32.52;100218.09;5072756;28;45475;-66
2022/03/27 10:06:34;;;;;;;;;22.67;21.33;;;;;15.76;31.62;100218.66;5073838;28;45521;-66
2022/03/27 10:09:02;;;;;;;;;21.67;20.67;;;;;15.82;30.94;100210.44;5073147;27;45563;-61
2022/03/27 10:11:28;;;;;;;;;26.33;22.67;;;;;15.88;31.39;100215.50;5074675;28;46095;-66
2022/03/27 10:13:54;;;;;;;;;19.67;16.33;;;;;15.98;31.46;100210.63;5068969;28;45416;-66
2022/03/27 10:16:30;;;;;;;;;18.33;16.67;;;;;16.07;30.47;100210.22;5075206;27;45434;-66
2022/03/27 10:19:02;;;;;;;;;35.00;31.00;;;;;16.17;30.51;100202.66;5076355;27;45509;-67
2022/03/27 10:21:28;;;;;;;;;23.00;20.67;;;;;16.25;30.08;100204.06;5072679;28;46198;-66
2022/03/27 10:24:14;;;;;;;;;18.00;17.67;;;;;16.35;29.41;100196.50;5068358;27;45569;-65
2022/03/27 10:26:41;;;;;;;;;22.00;19.00;;;;;16.45;29.76;100194.25;5074062;27;45503;-65
2022/03/27 10:29:10;;;;;;;;;25.33;19.67;;;;;16.53;29.47;100197.44;5067198;27;45622;-65
2022/03/27 10:31:36;;;;;;;;;22.33;20.67;;;;;16.62;29.23;100194.31;5072595;28;45425;-65
2022/03/27 10:34:04;;;;;;;;;14.00;14.00;;;;;16.71;29.45;100192.13;5069985;28;45481;-65
2022/03/27 10:36:36;;;;;;;;;14.00;14.00;;;;;16.83;29.16;100195.13;5067099;28;45458;-65
2022/03/27 10:39:25;;;;;;;;;17.00;15.67;;;;;16.93;29.22;100188.41;5069038;27;45500;-65
2022/03/27 10:42:03;;;;;;;;;19.33;16.00;;;;;17.05;28.82;100188.69;5066419;28;46499;-65
2022/03/27 10:44:31;;;;;;;;;24.00;22.67;;;;;17.16;28.37;100184.63;5074694;27;45551;-65
2022/03/27 10:47:15;;;;;;;;;18.33;16.00;;;;;17.27;28.12;100182.25;5071014;27;45480;-65
2022/03/27 10:50:05;;;;;;;;;23.33;19.00;;;;;17.36;28.14;100173.81;5068443;28;45436;-69
2022/03/27 10:52:32;;;;;;;;;23.00;23.00;;;;;17.48;28.13;100170.50;5074163;27;45432;-69
2022/03/27 10:54:59;;;;;;;;;23.67;20.67;;;;;17.57;28.88;100163.84;5065182;28;45435;-69
2022/03/27 10:57:32;;;;;;;;;20.00;16.67;;;;;17.66;28.37;100156.25;5073988;28;45404;-69
2022/03/27 10:59:58;;;;;;;;;24.33;19.33;;;;;17.78;27.69;100152.94;5079211;27;45544;-69
2022/03/27 11:02:46;;;;;;;;;20.00;15.33;;;;;17.91;27.33;100152.31;5090500;27;46348;-69
2022/03/27 11:05:31;;;;;;;;;17.00;15.75;;;;;18.07;26.93;100145.19;5065680;27;45518;-69
2022/03/27 11:08:15;;;;;;;;;18.00;17.00;;;;;18.23;26.85;100140.72;5075536;27;45494;-69
2022/03/27 11:10:42;;;;;;;;;17.00;16.00;;;;;18.34;26.75;100140.13;5069547;28;45324;-69
2022/03/27 11:13:29;;;;;;;;;20.00;18.33;;;;;18.48;26.63;100135.72;5073375;28;45590;-69
2022/03/27 11:16:14;;;;;;;;;15.00;15.00;;;;;18.64;26.49;100142.91;5070509;27;45436;-69
2022/03/27 11:18:43;;;;;;;;;20.00;18.33;;;;;18.77;25.80;100128.75;5071727;27;45656;-69
2022/03/27 11:21:13;;;;;;;;;17.75;16.50;;;;;18.92;26.16;100129.69;5073359;28;45394;-69